createdAt,value
2019-01-17T00:03:21.873Z,98593.59
2019-01-17T00:06:52.774Z,98583.97
2019-01-17T00:10:32.244Z,98607.79
2019-01-17T00:13:44.377Z,98580.82
2019-01-17T00:17:14.574Z,98588.20
2019-01-17T00:20:42.491Z,98598.91
2019-01-17T00:23:55.905Z,98589.41
2019-01-17T00:27:07.783Z,98593.58
2019-01-17T00:30:35.147Z,98604.54
2019-01-17T00:34:08.293Z,98598.99
2019-01-17T00:37:36.984Z,98590.80
2019-01-17T00:40:52.414Z,98601.80
2019-01-17T00:44:16.495Z,98600.89
2019-01-17T00:47:40.835Z,98595.41
2019-01-17T00:51:04.945Z,98597.12
2019-01-17T00:54:32.033Z,98594.64
2019-01-17T00:57:46.288Z,98591.16
2019-01-17T01:01:28.699Z,98583.81
2019-01-17T01:04:58.663Z,98593.55
2019-01-17T01:08:21.656Z,98594.20
2019-01-17T01:11:45.739Z,98599.44
2019-01-17T01:15:08.851Z,98563.93
2019-01-17T01:18:30.326Z,98581.46
2019-01-17T01:22:12.795Z,98571.43
2019-01-17T01:25:32.838Z,98583.92
2019-01-17T01:29:06.308Z,98568.79
2019-01-17T01:32:36.616Z,98578.40
2019-01-17T01:35:56.860Z,98568.42
2019-01-17T01:39:33.254Z,98579.69
2019-01-17T01:42:57.223Z,98577.06
2019-01-17T01:46:20.152Z,98583.48
2019-01-17T01:49:43.316Z,98576.56
2019-01-17T01:53:07.451Z,98573.16
2019-01-17T01:56:12.524Z,98570.48
2019-01-17T01:59:17.659Z,98571.67
2019-01-17T02:02:22.814Z,98562.52
2019-01-17T02:05:27.932Z,98583.43
2019-01-17T02:08:33.103Z,98583.70
2019-01-17T02:11:38.238Z,98580.17
2019-01-17T02:14:43.479Z,98586.38
2019-01-17T02:17:48.578Z,98589.56
2019-01-17T02:20:53.710Z,98589.41
2019-01-17T02:23:58.978Z,98584.50
2019-01-17T02:27:04.074Z,98591.52
2019-01-17T02:30:10.564Z,98588.20
2019-01-17T02:33:15.675Z,98585.20
2019-01-17T02:36:20.799Z,98583.78
2019-01-17T02:39:25.976Z,98592.63
2019-01-17T02:42:31.146Z,98595.54
2019-01-17T02:45:36.255Z,98593.22
2019-01-17T02:48:41.443Z,98588.55
2019-01-17T02:51:46.518Z,98592.25
2019-01-17T02:54:51.605Z,98581.59
2019-01-17T02:57:56.747Z,98591.52
2019-01-17T03:01:01.843Z,98575.72
2019-01-17T03:04:06.887Z,98577.33
2019-01-17T03:07:12.060Z,98574.05
2019-01-17T03:10:18.227Z,98570.80
2019-01-17T03:13:23.381Z,98570.38
2019-01-17T03:16:28.468Z,98560.76
2019-01-17T03:19:33.616Z,98556.27
2019-01-17T03:22:43.925Z,98564.80
2019-01-17T03:25:49.056Z,98562.69
2019-01-17T03:28:54.278Z,98558.06
2019-01-17T03:31:59.433Z,98555.75
2019-01-17T03:35:05.067Z,98551.91
2019-01-17T03:38:10.211Z,98553.86
2019-01-17T03:41:15.339Z,98553.70
2019-01-17T03:44:20.492Z,98545.87
2019-01-17T03:47:29.565Z,98549.05
2019-01-17T03:50:36.263Z,98540.77
2019-01-17T03:53:41.406Z,98531.23
2019-01-17T03:56:46.535Z,98524.26
2019-01-17T03:59:51.796Z,98520.77
2019-01-17T04:02:56.901Z,98525.16
2019-01-17T04:06:02.061Z,98519.51
2019-01-17T04:09:07.907Z,98525.02
2019-01-17T04:12:14.093Z,98524.54
2019-01-17T04:15:19.230Z,98521.58
2019-01-17T04:18:24.385Z,98511.77
2019-01-17T04:21:29.497Z,98512.29
2019-01-17T04:24:34.701Z,98505.52
2019-01-17T04:27:39.872Z,98511.06
2019-01-17T04:30:44.999Z,98516.99
2019-01-17T04:33:50.130Z,98507.78
2019-01-17T04:36:55.251Z,98512.41
2019-01-17T04:40:00.384Z,98508.23
2019-01-17T04:43:05.593Z,98518.73
2019-01-17T04:46:10.713Z,98510.59
2019-01-17T04:49:15.899Z,98509.98
2019-01-17T04:52:21.068Z,98509.41
2019-01-17T04:55:26.256Z,98502.39
2019-01-17T04:58:32.419Z,98502.67
2019-01-17T05:01:37.579Z,98514.87
2019-01-17T05:04:42.707Z,98519.95
2019-01-17T05:07:47.878Z,98515.89
2019-01-17T05:10:53.370Z,98521.23
2019-01-17T05:13:58.575Z,98517.06
2019-01-17T05:17:03.688Z,98531.19
2019-01-17T05:20:14.518Z,98519.18
2019-01-17T05:23:19.764Z,98516.05
2019-01-17T05:26:24.851Z,98517.73
2019-01-17T05:29:30.057Z,98518.17
2019-01-17T05:32:36.849Z,98513.38
2019-01-17T05:35:42.026Z,98512.00
2019-01-17T05:38:47.137Z,98510.41
2019-01-17T05:41:53.641Z,98511.02
2019-01-17T05:44:58.818Z,98504.36
2019-01-17T05:48:04.010Z,98502.94
2019-01-17T05:51:09.142Z,98500.14
2019-01-17T05:54:14.338Z,98508.37
2019-01-17T05:57:19.563Z,98507.13
2019-01-17T06:00:24.716Z,98499.80
2019-01-17T06:03:29.881Z,98500.78
2019-01-17T06:06:35.019Z,98503.98
2019-01-17T06:09:40.176Z,98507.52
2019-01-17T06:12:45.360Z,98504.24
2019-01-17T06:15:50.945Z,98497.64
2019-01-17T06:18:56.140Z,98503.08
2019-01-17T06:22:01.284Z,98502.73
2019-01-17T06:25:06.696Z,98500.66
2019-01-17T06:28:11.921Z,98504.62
2019-01-17T06:31:17.070Z,98500.00
2019-01-17T06:34:22.218Z,98497.50
2019-01-17T06:37:27.291Z,98496.05
2019-01-17T06:40:33.010Z,98495.44
2019-01-17T06:43:38.143Z,98498.28
2019-01-17T06:46:43.211Z,98491.72
2019-01-17T06:49:48.348Z,98488.64
2019-01-17T06:52:53.647Z,98492.97
2019-01-17T06:55:58.733Z,98484.77
2019-01-17T06:59:03.833Z,98488.64
2019-01-17T07:02:09.175Z,98490.00
2019-01-17T07:05:14.361Z,98482.41
2019-01-17T07:08:19.532Z,98488.52
2019-01-17T07:11:24.725Z,98484.19
2019-01-17T07:14:29.872Z,98484.99
2019-01-17T07:17:34.971Z,98491.45
2019-01-17T07:20:40.066Z,98491.51
2019-01-17T07:23:45.219Z,98483.66
2019-01-17T07:26:50.307Z,98487.33
2019-01-17T07:29:55.431Z,98494.09
2019-01-17T07:33:00.615Z,98495.61
2019-01-17T07:36:12.678Z,98494.83
2019-01-17T07:39:15.540Z,98493.98
2019-01-17T07:42:20.633Z,98491.77
2019-01-17T07:45:27.875Z,98489.10
2019-01-17T07:48:33.008Z,98490.09
2019-01-17T07:51:38.133Z,98493.38
2019-01-17T07:54:43.264Z,98496.22
2019-01-17T07:57:48.401Z,98487.67
2019-01-17T08:00:53.471Z,98491.08
2019-01-17T08:03:58.558Z,98499.82
2019-01-17T08:07:03.686Z,98481.23
2019-01-17T08:10:10.870Z,98489.21
2019-01-17T08:13:15.946Z,98483.69
2019-01-17T08:16:21.060Z,98486.08
2019-01-17T08:19:26.192Z,98481.78
2019-01-17T08:22:31.294Z,98475.17
2019-01-17T08:25:36.419Z,98486.86
2019-01-17T08:28:41.661Z,98501.80
2019-01-17T08:31:46.790Z,98502.28
2019-01-17T08:34:51.922Z,98504.88
2019-01-17T08:37:57.007Z,98509.26
2019-01-17T08:41:02.144Z,98505.16
2019-01-17T08:44:07.356Z,98499.96
2019-01-17T08:47:12.458Z,98503.45
2019-01-17T08:50:17.544Z,98511.50
2019-01-17T08:53:22.694Z,98505.36
2019-01-17T08:56:30.113Z,98500.28
2019-01-17T08:59:35.244Z,98500.33
2019-01-17T09:02:40.320Z,98504.47
2019-01-17T09:05:45.482Z,98505.72
2019-01-17T09:08:50.618Z,98500.33
2019-01-17T09:11:55.694Z,98494.64
2019-01-17T09:15:00.789Z,98505.78
2019-01-17T09:18:06.029Z,98504.16
2019-01-17T09:21:11.174Z,98503.40
2019-01-17T09:24:16.317Z,98493.50
2019-01-17T09:27:22.327Z,98497.27
2019-01-17T09:30:27.437Z,98494.76
2019-01-17T09:33:32.694Z,98502.95
2019-01-17T09:36:37.808Z,98500.56
2019-01-17T09:39:42.933Z,98498.41
2019-01-17T09:42:48.106Z,98490.13
2019-01-17T09:45:53.236Z,98499.02
2019-01-17T09:48:58.441Z,98506.73
2019-01-17T09:52:03.636Z,98511.34
2019-01-17T09:55:08.975Z,98499.45
2019-01-17T09:58:14.291Z,98501.97
2019-01-17T10:01:19.420Z,98494.17
2019-01-17T10:04:26.708Z,98499.23
2019-01-17T10:07:31.923Z,98496.02
2019-01-17T10:10:37.095Z,98506.13
2019-01-17T10:13:42.252Z,98504.94
2019-01-17T10:17:02.036Z,98503.01
2019-01-17T10:20:46.841Z,98509.17
2019-01-17T10:24:41.492Z,98500.03
2019-01-17T10:28:16.209Z,98500.33
2019-01-17T10:32:01.408Z,98504.36
2019-01-17T10:35:55.249Z,98497.91
2019-01-17T10:39:28.044Z,98500.72
2019-01-17T10:43:22.451Z,98507.33
2019-01-17T10:47:14.521Z,98501.66
2019-01-17T10:51:11.742Z,98492.67
2019-01-17T10:54:47.671Z,98484.86
2019-01-17T10:58:24.195Z,98490.22
2019-01-17T11:01:58.791Z,98474.88
2019-01-17T11:05:44.890Z,98487.34
2019-01-17T11:09:25.215Z,98496.30
2019-01-17T11:12:52.685Z,98495.16
2019-01-17T11:16:17.399Z,98484.83
2019-01-17T11:20:01.935Z,98479.95
2019-01-17T11:23:45.863Z,98469.59
2019-01-17T11:27:32.927Z,98480.91
2019-01-17T11:31:23.141Z,98483.10
2019-01-17T11:34:53.384Z,98479.50
2019-01-17T11:38:48.116Z,98473.95
2019-01-17T11:42:25.858Z,98473.61
2019-01-17T11:46:02.577Z,98460.80
2019-01-17T11:49:48.131Z,98459.78
2019-01-17T11:53:27.223Z,98455.94
2019-01-17T11:57:16.398Z,98462.04
2019-01-17T12:00:46.524Z,98464.92
2019-01-17T12:04:38.104Z,98464.16
2019-01-17T12:07:43.196Z,98455.66
2019-01-17T12:10:48.331Z,98448.13
2019-01-17T12:13:54.569Z,98439.11
2019-01-17T12:16:59.747Z,98448.28
2019-01-17T12:20:06.265Z,98444.05
2019-01-17T12:23:11.437Z,98434.88
2019-01-17T12:26:16.546Z,98426.63
2019-01-17T12:29:21.593Z,98421.06
2019-01-17T12:32:26.747Z,98431.03
2019-01-17T12:35:31.933Z,98432.84
2019-01-17T12:38:37.139Z,98445.67
2019-01-17T12:41:42.281Z,98460.93
2019-01-17T12:44:47.438Z,98434.48
2019-01-17T12:47:52.677Z,98431.87
2019-01-17T12:50:57.774Z,98433.83
2019-01-17T12:54:02.847Z,98431.87
2019-01-17T12:57:07.934Z,98430.91
2019-01-17T13:00:16.496Z,98421.39
2019-01-17T13:03:21.649Z,98412.78
2019-01-17T13:06:26.887Z,98402.36
2019-01-17T13:09:32.027Z,98424.72
2019-01-17T13:12:37.138Z,98398.55
2019-01-17T13:15:42.272Z,98401.48
2019-01-17T13:18:47.455Z,98405.58
2019-01-17T13:21:52.583Z,98403.57
2019-01-17T13:24:57.815Z,98396.47
2019-01-17T13:28:03.014Z,98384.81
2019-01-17T13:31:08.124Z,98383.50
2019-01-17T13:34:13.253Z,98380.89
2019-01-17T13:37:18.391Z,98386.42
2019-01-17T13:40:23.527Z,98377.25
2019-01-17T13:43:28.645Z,98379.81
2019-01-17T13:46:33.795Z,98389.66
2019-01-17T13:49:38.924Z,98390.52
2019-01-17T13:52:44.082Z,98389.40
2019-01-17T13:55:49.173Z,98389.25
2019-01-17T13:58:54.455Z,98393.87
2019-01-17T14:01:59.566Z,98386.19
2019-01-17T14:05:04.976Z,98395.09
2019-01-17T14:08:10.132Z,98392.47
2019-01-17T14:11:15.270Z,98393.67
2019-01-17T14:14:20.348Z,98386.97
2019-01-17T14:17:25.438Z,98395.77
2019-01-17T14:20:30.622Z,98389.22
2019-01-17T14:23:35.717Z,98402.08
2019-01-17T14:26:40.811Z,98407.50
2019-01-17T14:29:45.924Z,98426.23
2019-01-17T14:32:51.020Z,98427.86
2019-01-17T14:35:56.121Z,98445.16
2019-01-17T14:39:01.234Z,98447.94
2019-01-17T14:42:07.998Z,98449.72
2019-01-17T14:45:15.401Z,98432.86
2019-01-17T14:48:20.524Z,98435.50
2019-01-17T14:51:25.660Z,98436.36
2019-01-17T14:54:30.774Z,98436.63
2019-01-17T14:57:36.090Z,98433.11
2019-01-17T15:00:41.183Z,98431.92
2019-01-17T15:03:46.316Z,98439.03
2019-01-17T15:06:51.500Z,98448.98
2019-01-17T15:09:56.579Z,98443.65
2019-01-17T15:13:01.711Z,98441.30
2019-01-17T15:16:06.820Z,98441.88
2019-01-17T15:19:11.925Z,98450.91
2019-01-17T15:22:17.010Z,98445.41
2019-01-17T15:25:22.118Z,98445.98
2019-01-17T15:28:27.264Z,98448.56
2019-01-17T15:31:32.425Z,98446.33
2019-01-17T15:34:37.594Z,98445.82
2019-01-17T15:37:42.720Z,98455.47
2019-01-17T15:40:47.913Z,98456.11
2019-01-17T15:43:53.169Z,98471.02
2019-01-17T15:46:58.324Z,98465.85
2019-01-17T15:50:03.535Z,98469.59
2019-01-17T15:53:08.713Z,98470.11
2019-01-17T15:56:13.867Z,98473.62
2019-01-17T15:59:23.202Z,98474.64
2019-01-17T16:02:25.823Z,98469.55
2019-01-17T16:05:30.927Z,98486.72
2019-01-17T16:08:38.045Z,98484.67
2019-01-17T16:11:43.071Z,98497.50
2019-01-17T16:14:48.188Z,98512.44
2019-01-17T16:17:53.362Z,98567.99
2019-01-17T16:20:58.477Z,98598.53
2019-01-17T16:24:03.644Z,98612.33
2019-01-17T16:27:08.798Z,98627.05
2019-01-17T16:30:28.307Z,98635.42
2019-01-17T16:33:33.487Z,98641.30
2019-01-17T16:36:38.655Z,98632.88
2019-01-17T16:39:43.807Z,98639.03
2019-01-17T16:42:48.964Z,98646.59
2019-01-17T16:45:54.087Z,98653.59
2019-01-17T16:48:59.293Z,98665.00
2019-01-17T16:52:04.435Z,98656.23
2019-01-17T16:55:10.117Z,98658.94
2019-01-17T16:58:15.281Z,98663.49
2019-01-17T17:01:21.709Z,98652.40
2019-01-17T17:04:26.995Z,98656.94
2019-01-17T17:07:32.131Z,98671.38
2019-01-17T17:10:37.251Z,98666.63
2019-01-17T17:13:42.457Z,98680.33
2019-01-17T17:16:47.680Z,98688.53
2019-01-17T17:19:52.819Z,98701.02
2019-01-17T17:22:57.974Z,98704.69
2019-01-17T17:26:03.153Z,98708.56
2019-01-17T17:29:08.276Z,98726.58
2019-01-17T17:32:13.450Z,98727.41
2019-01-17T17:35:18.552Z,98732.77
2019-01-17T17:38:23.716Z,98743.58
2019-01-17T17:41:28.862Z,98745.70
2019-01-17T17:44:34.016Z,98751.15
2019-01-17T17:47:39.209Z,98757.27
2019-01-17T17:50:44.323Z,98767.55
2019-01-17T17:53:49.532Z,98768.73
2019-01-17T17:56:54.701Z,98769.77
2019-01-17T17:59:59.845Z,98782.45
2019-01-17T18:03:05.014Z,98773.61
2019-01-17T18:06:10.163Z,98772.98
2019-01-17T18:09:15.358Z,98780.64
2019-01-17T18:12:20.519Z,98778.55
2019-01-17T18:15:25.615Z,98782.16
2019-01-17T18:18:30.874Z,98785.36
2019-01-17T18:21:36.065Z,98785.45
2019-01-17T18:24:41.250Z,98794.91
2019-01-17T18:27:46.336Z,98801.69
2019-01-17T18:30:51.563Z,98814.31
2019-01-17T18:33:56.787Z,98821.67
2019-01-17T18:37:01.998Z,98828.87
2019-01-17T18:40:09.733Z,98837.30
2019-01-17T18:43:14.958Z,98842.77
2019-01-17T18:46:20.398Z,98843.85
2019-01-17T18:49:25.510Z,98850.34
2019-01-17T18:52:31.354Z,98855.59
2019-01-17T18:55:36.517Z,98878.09
2019-01-17T18:58:41.670Z,98880.76
2019-01-17T19:01:46.841Z,98883.38
2019-01-17T19:04:51.937Z,98888.52
2019-01-17T19:07:57.388Z,98890.67
2019-01-17T19:11:03.025Z,98900.61
2019-01-17T19:14:08.191Z,98886.91
2019-01-17T19:17:13.290Z,98892.23
2019-01-17T19:20:19.430Z,98909.80
2019-01-17T19:23:24.595Z,98906.50
2019-01-17T19:26:29.758Z,98914.38
2019-01-17T19:29:34.889Z,98900.96
2019-01-17T19:32:40.029Z,98913.92
2019-01-17T19:35:45.173Z,98932.13
2019-01-17T19:38:50.281Z,98935.38
2019-01-17T19:41:55.442Z,98960.03
2019-01-17T19:45:01.005Z,98962.75
2019-01-17T19:48:06.189Z,98966.44
2019-01-17T19:51:11.323Z,98976.33
2019-01-17T19:54:16.483Z,98981.69
2019-01-17T19:57:22.234Z,98990.97
2019-01-17T20:00:27.361Z,98995.13
2019-01-17T20:03:33.548Z,99003.66
2019-01-17T20:06:38.747Z,99006.50
2019-01-17T20:09:43.920Z,99013.49
2019-01-17T20:12:49.061Z,99020.25
2019-01-17T20:15:54.282Z,99020.40
2019-01-17T20:18:59.448Z,99032.48
2019-01-17T20:22:04.590Z,99031.84
2019-01-17T20:25:09.832Z,99043.57
2019-01-17T20:28:15.004Z,99047.77
2019-01-17T20:31:20.173Z,99058.36
2019-01-17T20:34:25.324Z,99052.36
2019-01-17T20:37:30.427Z,99058.95
2019-01-17T20:40:35.664Z,99064.35
2019-01-17T20:43:40.819Z,99072.63
2019-01-17T20:46:45.941Z,99071.69
2019-01-17T20:49:51.154Z,99067.27
2019-01-17T20:52:56.321Z,99078.11
2019-01-17T20:56:01.462Z,99087.11
2019-01-17T20:59:06.627Z,99082.02
2019-01-17T21:02:20.750Z,99090.51
2019-01-17T21:05:25.938Z,99092.00
2019-01-17T21:08:31.098Z,99080.48
2019-01-17T21:11:36.219Z,99081.23
2019-01-17T21:14:41.352Z,99090.05
2019-01-17T21:17:46.540Z,99084.20
2019-01-17T21:20:52.189Z,99094.53
2019-01-17T21:23:57.414Z,99087.45
2019-01-17T21:27:02.591Z,99091.94
2019-01-17T21:30:11.511Z,99091.47
2019-01-17T21:33:16.737Z,99089.39
2019-01-17T21:36:21.890Z,99092.75
2019-01-17T21:39:27.923Z,99095.30
2019-01-17T21:42:33.060Z,99099.09
2019-01-17T21:45:43.681Z,99101.47
2019-01-17T21:48:48.921Z,99100.34
2019-01-17T21:51:54.110Z,99107.14
2019-01-17T21:54:59.274Z,99105.34
2019-01-17T21:58:04.637Z,99108.15
2019-01-17T22:01:09.780Z,99115.06
2019-01-17T22:04:15.009Z,99125.69
2019-01-17T22:07:27.806Z,99126.73
2019-01-17T22:10:32.902Z,99129.08
2019-01-17T22:13:38.018Z,99145.07
2019-01-17T22:16:43.112Z,99150.53
2019-01-17T22:19:48.235Z,99151.65
2019-01-17T22:22:53.494Z,99158.58
2019-01-17T22:25:58.657Z,99146.81
2019-01-17T22:29:03.796Z,99155.95
2019-01-17T22:32:08.942Z,99154.91
2019-01-17T22:35:14.366Z,99161.39
2019-01-17T22:38:19.514Z,99159.52
2019-01-17T22:41:24.916Z,99159.74
2019-01-17T22:44:30.057Z,99165.02
2019-01-17T22:47:36.271Z,99162.84
2019-01-17T22:50:41.357Z,99167.58
2019-01-17T22:53:46.488Z,99169.89
2019-01-17T22:56:51.635Z,99158.66
2019-01-17T22:59:56.748Z,99165.91
2019-01-17T23:03:01.928Z,99181.81
2019-01-17T23:06:06.996Z,99175.11
2019-01-17T23:09:12.181Z,99167.87
2019-01-17T23:12:17.368Z,99175.17
2019-01-17T23:15:22.571Z,99177.16
2019-01-17T23:18:27.712Z,99181.18
2019-01-17T23:21:32.857Z,99182.45
2019-01-17T23:24:37.918Z,99186.91
2019-01-17T23:27:43.206Z,99194.33
2019-01-17T23:30:48.272Z,99208.02
2019-01-17T23:33:53.419Z,99212.16
2019-01-17T23:36:58.555Z,99219.53
2019-01-17T23:40:04.742Z,99228.77
2019-01-17T23:43:09.884Z,99232.09
2019-01-17T23:46:15.019Z,99226.52
2019-01-17T23:49:20.159Z,99233.99
2019-01-17T23:52:25.312Z,99234.08
2019-01-17T23:55:30.419Z,99240.88
2019-01-17T23:58:35.551Z,99239.23
